sensor_id;sensor_type;location;lat;lon;timestamp;pressure;altitude;pressure_sealevel;temperature;humidity
60433;BME280;46286;48.098;11.590;2023-02-13T00:00:06;97322.13;;;-0.18;100.00
60433;BME280;46286;48.098;11.590;2023-02-13T00:02:52;97319.91;;;-0.12;100.00
60433;BME280;46286;48.098;11.590;2023-02-13T00:05:18;97316.97;;;-0.18;100.00
60433;BME280;46286;48.098;11.590;2023-02-13T00:07:43;97319.25;;;-0.06;100.00
60433;BME280;46286;48.098;11.590;2023-02-13T00:10:10;97320.22;;;-0.15;100.00
60433;BME280;46286;48.098;11.590;2023-02-13T00:12:35;97319.91;;;-0.12;100.00
60433;BME280;46286;48.098;11.590;2023-02-13T00:15:01;97315.19;;;-0.09;100.00
60433;BME280;46286;48.098;11.590;2023-02-13T00:17:27;97311.00;;;-0.10;100.00
60433;BME280;46286;48.098;11.590;2023-02-13T00:19:52;97305.97;;;-0.20;100.00
60433;BME280;46286;48.098;11.590;2023-02-13T00:22:18;97300.16;;;-0.13;100.00
60433;BME280;46286;48.098;11.590;2023-02-13T00:24:43;97295.13;;;-0.15;100.00
60433;BME280;46286;48.098;11.590;2023-02-13T00:27:09;97301.66;;;-0.03;100.00
60433;BME280;46286;48.098;11.590;2023-02-13T00:29:35;97305.31;;;-0.13;100.00
60433;BME280;46286;48.098;11.590;2023-02-13T00:32:00;97301.94;;;-0.14;100.00
60433;BME280;46286;48.098;11.590;2023-02-13T00:34:26;97304.06;;;-0.09;100.00
60433;BME280;46286;48.098;11.590;2023-02-13T00:36:52;97292.38;;;-0.13;100.00
60433;BME280;46286;48.098;11.590;2023-02-13T00:39:18;97297.59;;;-0.05;100.00
60433;BME280;46286;48.098;11.590;2023-02-13T00:41:43;97293.22;;;-0.13;100.00
60433;BME280;46286;48.098;11.590;2023-02-13T00:44:09;97289.84;;;-0.05;100.00
60433;BME280;46286;48.098;11.590;2023-02-13T00:46:34;97291.94;;;-0.01;100.00
60433;BME280;46286;48.098;11.590;2023-02-13T00:49:00;97287.59;;;0.00;100.00
60433;BME280;46286;48.098;11.590;2023-02-13T00:51:27;97288.53;;;-0.09;100.00
60433;BME280;46286;48.098;11.590;2023-02-13T00:53:52;97288.88;;;-0.04;100.00
60433;BME280;46286;48.098;11.590;2023-02-13T00:56:18;97290.81;;;0.02;100.00
60433;BME280;46286;48.098;11.590;2023-02-13T00:58:44;97296.63;;;0.04;100.00
60433;BME280;46286;48.098;11.590;2023-02-13T01:01:10;97293.06;;;-0.03;100.00
60433;BME280;46286;48.098;11.590;2023-02-13T01:03:35;97279.47;;;-0.05;100.00
60433;BME280;46286;48.098;11.590;2023-02-13T01:06:01;97288.53;;;-0.09;100.00
60433;BME280;46286;48.098;11.590;2023-02-13T01:08:26;97291.75;;;-0.07;100.00
60433;BME280;46286;48.098;11.590;2023-02-13T01:10:53;97285.97;;;-0.01;100.00
60433;BME280;46286;48.098;11.590;2023-02-13T01:13:19;97287.25;;;-0.05;100.00
60433;BME280;46286;48.098;11.590;2023-02-13T01:15:46;97286.56;;;-0.07;100.00
60433;BME280;46286;48.098;11.590;2023-02-13T01:18:15;97290.94;;;-0.08;100.00
60433;BME280;46286;48.098;11.590;2023-02-13T01:20:42;97276.53;;;-0.10;100.00
60433;BME280;46286;48.098;11.590;2023-02-13T01:23:11;97277.53;;;-0.03;100.00
60433;BME280;46286;48.098;11.590;2023-02-13T01:25:42;97282.41;;;0.00;100.00
60433;BME280;46286;48.098;11.590;2023-02-13T01:28:08;97280.16;;;0.05;100.00
60433;BME280;46286;48.098;11.590;2023-02-13T01:30:34;97266.56;;;0.03;100.00
60433;BME280;46286;48.098;11.590;2023-02-13T01:33:00;97276.28;;;0.09;100.00
60433;BME280;46286;48.098;11.590;2023-02-13T01:35:25;97275.31;;;0.10;100.00
60433;BME280;46286;48.098;11.590;2023-02-13T01:37:51;97278.22;;;0.07;100.00
60433;BME280;46286;48.098;11.590;2023-02-13T01:40:16;97280.66;;;0.09;100.00
60433;BME280;46286;48.098;11.590;2023-02-13T01:42:42;97281.44;;;0.09;100.00
60433;BME280;46286;48.098;11.590;2023-02-13T01:45:26;97277.72;;;0.04;100.00
60433;BME280;46286;48.098;11.590;2023-02-13T01:47:53;97274.81;;;0.07;100.00
60433;BME280;46286;48.098;11.590;2023-02-13T01:53:00;97278.84;;;0.01;100.00
60433;BME280;46286;48.098;11.590;2023-02-13T01:55:26;97283.22;;;0.01;100.00
60433;BME280;46286;48.098;11.590;2023-02-13T01:57:56;97274.16;;;0.05;100.00
60433;BME280;46286;48.098;11.590;2023-02-13T02:00:24;97277.41;;;0.07;100.00
60433;BME280;46286;48.098;11.590;2023-02-13T02:02:53;97273.84;;;0.08;100.00
60433;BME280;46286;48.098;11.590;2023-02-13T02:05:21;97275.59;;;-0.01;100.00
60433;BME280;46286;48.098;11.590;2023-02-13T02:07:49;97272.41;;;0.13;100.00
60433;BME280;46286;48.098;11.590;2023-02-13T02:10:16;97278.69;;;0.11;100.00
60433;BME280;46286;48.098;11.590;2023-02-13T02:13:00;97280.16;;;0.05;100.00
60433;BME280;46286;48.098;11.590;2023-02-13T02:15:28;97281.44;;;0.09;100.00
60433;BME280;46286;48.098;11.590;2023-02-13T02:17:54;97273.66;;;0.01;100.00
60433;BME280;46286;48.098;11.590;2023-02-13T02:20:44;97284.84;;;0.10;100.00
60433;BME280;46286;48.098;11.590;2023-02-13T02:42:44;97291.06;;;-0.18;100.00
60433;BME280;46286;48.098;11.590;2023-02-13T02:47:58;97297.22;;;-0.27;100.00
60433;BME280;46286;48.098;11.590;2023-02-13T02:51:00;97299.81;;;-0.19;100.00
60433;BME280;46286;48.098;11.590;2023-02-13T02:53:56;97297.22;;;-0.27;100.00
60433;BME280;46286;48.098;11.590;2023-02-13T02:56:33;97298.53;;;-0.23;100.00
60433;BME280;46286;48.098;11.590;2023-02-13T02:59:05;97298.31;;;-0.29;100.00
60433;BME280;46286;48.098;11.590;2023-02-13T03:01:52;97294.63;;;-0.27;100.00
60433;BME280;46286;48.098;11.590;2023-02-13T03:04:40;97294.59;;;-0.35;100.00
60433;BME280;46286;48.098;11.590;2023-02-13T03:07:42;97292.94;;;-0.36;100.00
60433;BME280;46286;48.098;11.590;2023-02-13T03:10:15;97298.75;;;-0.42;100.00
60433;BME280;46286;48.098;11.590;2023-02-13T03:13:09;97294.84;;;-0.46;100.00
60433;BME280;46286;48.098;11.590;2023-02-13T03:15:50;97295.50;;;-0.53;100.00
60433;BME280;46286;48.098;11.590;2023-02-13T03:18:38;97300.06;;;-0.38;100.00
60433;BME280;46286;48.098;11.590;2023-02-13T03:27:33;97291.63;;;-0.48;100.00
60433;BME280;46286;48.098;11.590;2023-02-13T03:30:55;97285.94;;;-0.52;100.00
60433;BME280;46286;48.098;11.590;2023-02-13T03:33:41;97293.84;;;-0.54;100.00
60433;BME280;46286;48.098;11.590;2023-02-13T03:36:16;97297.91;;;-0.51;100.00
60433;BME280;46286;48.098;11.590;2023-02-13T03:39:11;97302.94;;;-0.49;100.00
60433;BME280;46286;48.098;11.590;2023-02-13T03:41:49;97306.69;;;-0.44;100.00
60433;BME280;46286;48.098;11.590;2023-02-13T03:44:40;97305.47;;;-0.58;100.00
60433;BME280;46286;48.098;11.590;2023-02-13T03:47:08;97303.56;;;-0.56;100.00
60433;BME280;46286;48.098;11.590;2023-02-13T03:49:52;97303.56;;;-0.56;100.00
60433;BME280;46286;48.098;11.590;2023-02-13T03:52:36;97305.78;;;-0.61;100.00
60433;BME280;46286;48.098;11.590;2023-02-13T03:55:10;97313.13;;;-0.48;100.00
60433;BME280;46286;48.098;11.590;2023-02-13T03:57:59;97304.47;;;-0.65;100.00
60433;BME280;46286;48.098;11.590;2023-02-13T04:00:50;97307.72;;;-0.63;100.00
60433;BME280;46286;48.098;11.590;2023-02-13T04:03:27;97312.28;;;-0.57;100.00
60433;BME280;46286;48.098;11.590;2023-02-13T04:06:03;97309.03;;;-0.59;100.00
60433;BME280;46286;48.098;11.590;2023-02-13T04:08:30;97309.94;;;-0.68;100.00
60433;BME280;46286;48.098;11.590;2023-02-13T04:13:31;97309.94;;;-0.68;100.00
60433;BME280;46286;48.098;11.590;2023-02-13T04:16:11;97303.88;;;-0.59;100.00
60433;BME280;46286;48.098;11.590;2023-02-13T04:18:38;97309.63;;;-0.65;100.00
60433;BME280;46286;48.098;11.590;2023-02-13T04:21:05;97302.25;;;-0.60;100.00
60433;BME280;46286;48.098;11.590;2023-02-13T04:23:31;97310.16;;;-0.61;100.00
60433;BME280;46286;48.098;11.590;2023-02-13T04:25:59;97307.09;;;-0.57;100.00
60433;BME280;46286;48.098;11.590;2023-02-13T04:28:26;97308.38;;;-0.61;100.00
60433;BME280;46286;48.098;11.590;2023-02-13T04:30:51;97299.59;;;-0.68;100.00
60433;BME280;46286;48.098;11.590;2023-02-13T04:33:17;97299.59;;;-0.68;100.00
60433;BME280;46286;48.098;11.590;2023-02-13T04:35:43;97307.22;;;-0.66;100.00
60433;BME280;46286;48.098;11.590;2023-02-13T04:38:08;97302.88;;;-0.66;100.00
60433;BME280;46286;48.098;11.590;2023-02-13T04:40:34;97301.25;;;-0.67;100.00
60433;BME280;46286;48.098;11.590;2023-02-13T04:42:59;97299.81;;;-0.61;100.00
60433;BME280;46286;48.098;11.590;2023-02-13T04:45:25;97302.13;;;-0.76;100.00
60433;BME280;46286;48.098;11.590;2023-02-13T04:47:52;97304.69;;;-0.84;100.00
60433;BME280;46286;48.098;11.590;2023-02-13T04:50:18;97312.47;;;-0.84;100.00
60433;BME280;46286;48.098;11.590;2023-02-13T04:52:44;97307.63;;;-0.79;100.00
60433;BME280;46286;48.098;11.590;2023-02-13T04:55:10;97305.72;;;-0.77;100.00
60433;BME280;46286;48.098;11.590;2023-02-13T04:57:36;97300.53;;;-0.77;100.00
60433;BME280;46286;48.098;11.590;2023-02-13T05:00:03;97307.94;;;-0.82;100.00
60433;BME280;46286;48.098;11.590;2023-02-13T05:02:30;97303.13;;;-0.77;100.00
60433;BME280;46286;48.098;11.590;2023-02-13T05:04:55;97302.44;;;-0.79;100.00
60433;BME280;46286;48.098;11.590;2023-02-13T05:07:21;97298.25;;;-0.80;100.00
60433;BME280;46286;48.098;11.590;2023-02-13T05:09:46;97301.44;;;-0.87;100.00
60433;BME280;46286;48.098;11.590;2023-02-13T05:12:12;97295.25;;;-0.94;100.00
60433;BME280;46286;48.098;11.590;2023-02-13T05:14:37;97308.19;;;-0.94;100.00
60433;BME280;46286;48.098;11.590;2023-02-13T05:17:03;97306.91;;;-0.90;100.00
60433;BME280;46286;48.098;11.590;2023-02-13T05:19:28;97306.59;;;-0.87;100.00
60433;BME280;46286;48.098;11.590;2023-02-13T05:21:54;97314.13;;;-0.75;100.00
60433;BME280;46286;48.098;11.590;2023-02-13T05:24:38;97313.31;;;-1.02;100.00
60433;BME280;46286;48.098;11.590;2023-02-13T05:27:04;97313.31;;;-1.02;100.00
60433;BME280;46286;48.098;11.590;2023-02-13T05:29:29;97312.41;;;-0.93;100.00
60433;BME280;46286;48.098;11.590;2023-02-13T05:31:56;97311.06;;;-0.97;100.00
60433;BME280;46286;48.098;11.590;2023-02-13T05:34:24;97314.34;;;-0.95;100.00
60433;BME280;46286;48.098;11.590;2023-02-13T05:36:51;97313.03;;;-0.91;100.00
60433;BME280;46286;48.098;11.590;2023-02-13T05:39:16;97322.13;;;-0.87;100.00
60433;BME280;46286;48.098;11.590;2023-02-13T05:41:43;97316.56;;;-1.00;100.00
60433;BME280;46286;48.098;11.590;2023-02-13T05:44:09;97314.91;;;-1.01;100.00
60433;BME280;46286;48.098;11.590;2023-02-13T05:46:37;97317.47;;;-1.09;100.00
60433;BME280;46286;48.098;11.590;2023-02-13T05:49:03;97312.31;;;-1.09;100.00
60433;BME280;46286;48.098;11.590;2023-02-13T05:51:28;97319.38;;;-1.11;100.00
60433;BME280;46286;48.098;11.590;2023-02-13T05:53:54;97319.06;;;-1.08;100.00
60433;BME280;46286;48.098;11.590;2023-02-13T05:56:20;97319.38;;;-1.11;100.00
60433;BME280;46286;48.098;11.590;2023-02-13T05:58:45;97322.63;;;-1.09;100.00
60433;BME280;46286;48.098;11.590;2023-02-13T06:01:11;97331.44;;;-0.94;100.00
60433;BME280;46286;48.098;11.590;2023-02-13T06:03:40;97332.00;;;-1.08;100.00
60433;BME280;46286;48.098;11.590;2023-02-13T06:06:06;97328.09;;;-1.12;100.00
60433;BME280;46286;48.098;11.590;2023-02-13T06:08:31;97335.41;;;-1.08;100.00
60433;BME280;46286;48.098;11.590;2023-02-13T06:10:57;97328.91;;;-1.12;100.00
60433;BME280;46286;48.098;11.590;2023-02-13T06:13:23;97339.16;;;-1.02;100.00
60433;BME280;46286;48.098;11.590;2023-02-13T06:15:48;97341.38;;;-1.07;100.00
60433;BME280;46286;48.098;11.590;2023-02-13T06:18:15;97339.16;;;-1.02;100.00
60433;BME280;46286;48.098;11.590;2023-02-13T06:20:41;97339.75;;;-1.08;100.00
60433;BME280;46286;48.098;11.590;2023-02-13T06:23:07;97346.25;;;-1.04;100.00
60433;BME280;46286;48.098;11.590;2023-02-13T06:25:36;97346.53;;;-1.07;100.00
60433;BME280;46286;48.098;11.590;2023-02-13T06:28:03;97340.34;;;-1.14;100.00
60433;BME280;46286;48.098;11.590;2023-02-13T06:30:29;97348.88;;;-0.96;100.00
60433;BME280;46286;48.098;11.590;2023-02-13T06:32:55;97346.00;;;-1.11;100.00
60433;BME280;46286;48.098;11.590;2023-02-13T06:35:21;97348.75;;;-1.12;100.00
60433;BME280;46286;48.098;11.590;2023-02-13T06:37:46;97356.88;;;-1.07;100.00
60433;BME280;46286;48.098;11.590;2023-02-13T06:40:13;97357.19;;;-1.10;100.00
60433;BME280;46286;48.098;11.590;2023-02-13T06:42:40;97357.50;;;-1.13;100.00
60433;BME280;46286;48.098;11.590;2023-02-13T06:45:07;97353.91;;;-1.12;100.00
60433;BME280;46286;48.098;11.590;2023-02-13T06:47:33;97362.03;;;-1.07;100.00
60433;BME280;46286;48.098;11.590;2023-02-13T06:49:58;97363.97;;;-1.09;100.00
60433;BME280;46286;48.098;11.590;2023-02-13T06:52:24;97356.22;;;-1.09;100.00
60433;BME280;46286;48.098;11.590;2023-02-13T06:54:49;97370.53;;;-0.97;100.00
60433;BME280;46286;48.098;11.590;2023-02-13T06:57:15;97360.09;;;-1.05;100.00
60433;BME280;46286;48.098;11.590;2023-02-13T06:59:41;97357.19;;;-1.10;100.00
60433;BME280;46286;48.098;11.590;2023-02-13T07:02:09;97357.50;;;-1.13;100.00
60433;BME280;46286;48.098;11.590;2023-02-13T07:04:35;97365.38;;;-1.15;100.00
60433;BME280;46286;48.098;11.590;2023-02-13T07:07:00;97363.38;;;-1.03;100.00
60433;BME280;46286;48.098;11.590;2023-02-13T07:09:26;97371.19;;;-0.95;100.00
60433;BME280;46286;48.098;11.590;2023-02-13T07:11:51;97379.06;;;-0.96;100.00
60433;BME280;46286;48.098;11.590;2023-02-13T07:14:17;97376.38;;;-0.95;100.00
60433;BME280;46286;48.098;11.590;2023-02-13T07:16:42;97380.59;;;-1.12;100.00
60433;BME280;46286;48.098;11.590;2023-02-13T07:19:08;97384.03;;;-1.03;100.00
60433;BME280;46286;48.098;11.590;2023-02-13T07:21:34;97385.38;;;-0.99;100.00
60433;BME280;46286;48.098;11.590;2023-02-13T07:24:00;97376.63;;;-0.98;100.00
60433;BME280;46286;48.098;11.590;2023-02-13T07:26:26;97393.28;;;-1.18;100.00
60433;BME280;46286;48.098;11.590;2023-02-13T07:28:54;97391.94;;;-1.05;100.00
60433;BME280;46286;48.098;11.590;2023-02-13T07:31:19;97402.88;;;-0.93;100.00
60433;BME280;46286;48.098;11.590;2023-02-13T07:33:48;97399.25;;;-1.00;100.00
60433;BME280;46286;48.098;11.590;2023-02-13T07:36:13;97402.88;;;-0.93;100.00
60433;BME280;46286;48.098;11.590;2023-02-13T07:38:39;97410.31;;;-0.90;100.00
60433;BME280;46286;48.098;11.590;2023-02-13T07:41:05;97410.25;;;-0.98;100.00
60433;BME280;46286;48.098;11.590;2023-02-13T07:43:30;97410.00;;;-0.87;100.00
60433;BME280;46286;48.098;11.590;2023-02-13T07:46:00;97403.50;;;-0.91;100.00
60433;BME280;46286;48.098;11.590;2023-02-13T07:48:27;97419.00;;;-0.91;100.00
60433;BME280;46286;48.098;11.590;2023-02-13T07:50:53;97410.31;;;-0.90;100.00
60433;BME280;46286;48.098;11.590;2023-02-13T07:53:19;97415.19;;;-0.87;100.00
60433;BME280;46286;48.098;11.590;2023-02-13T07:55:44;97419.63;;;-0.97;100.00
60433;BME280;46286;48.098;11.590;2023-02-13T07:58:10;97419.63;;;-0.97;100.00
60433;BME280;46286;48.098;11.590;2023-02-13T08:00:35;97425.88;;;-0.81;100.00
60433;BME280;46286;48.098;11.590;2023-02-13T08:03:01;97421.81;;;-0.66;100.00
60433;BME280;46286;48.098;11.590;2023-02-13T08:05:28;97427.56;;;-0.72;100.00
60433;BME280;46286;48.098;11.590;2023-02-13T08:07:55;97426.63;;;-0.89;100.00
60433;BME280;46286;48.098;11.590;2023-02-13T08:10:20;97432.63;;;-0.89;100.00
60433;BME280;46286;48.098;11.590;2023-02-13T08:13:06;97434.66;;;-0.74;100.00
60433;BME280;46286;48.098;11.590;2023-02-13T08:15:31;97434.00;;;-0.76;100.00
60433;BME280;46286;48.098;11.590;2023-02-13T08:17:57;97427.06;;;-0.76;100.00
60433;BME280;46286;48.098;11.590;2023-02-13T08:20:22;97427.47;;;-0.62;100.00
60433;BME280;46286;48.098;11.590;2023-02-13T08:22:49;97427.03;;;-0.58;100.00
60433;BME280;46286;48.098;11.590;2023-02-13T08:25:15;97434.50;;;-0.55;100.00
60433;BME280;46286;48.098;11.590;2023-02-13T08:27:41;97432.00;;;-0.64;100.00
60433;BME280;46286;48.098;11.590;2023-02-13T08:30:07;97431.59;;;-0.96;100.00
60433;BME280;46286;48.098;11.590;2023-02-13T08:32:33;97428.47;;;-0.81;100.00
60433;BME280;46286;48.098;11.590;2023-02-13T08:34:59;97423.72;;;-0.68;100.00
60433;BME280;46286;48.098;11.590;2023-02-13T08:37:24;97416.72;;;-0.49;100.00
60433;BME280;46286;48.098;11.590;2023-02-13T08:39:50;97422.03;;;-0.33;100.00
60433;BME280;46286;48.098;11.590;2023-02-13T08:42:15;97413.91;;;-0.38;100.00
60433;BME280;46286;48.098;11.590;2023-02-13T08:44:41;97422.03;;;-0.33;100.00
60433;BME280;46286;48.098;11.590;2023-02-13T08:47:07;97426.88;;;-0.30;100.00
60433;BME280;46286;48.098;11.590;2023-02-13T08:49:33;97428.38;;;-0.19;100.00
60433;BME280;46286;48.098;11.590;2023-02-13T08:51:59;97429.09;;;-0.35;100.00
60433;BME280;46286;48.098;11.590;2023-02-13T08:54:26;97432.44;;;-0.16;100.00
60433;BME280;46286;48.098;11.590;2023-02-13T08:56:53;97426.47;;;-0.43;100.00
60433;BME280;46286;48.098;11.590;2023-02-13T08:59:18;97424.16;;;-0.55;100.00
60433;BME280;46286;48.098;11.590;2023-02-13T09:01:44;97425.44;;;-0.50;100.00
60433;BME280;46286;48.098;11.590;2023-02-13T09:04:10;97429.50;;;-0.22;100.00
60433;BME280;46286;48.098;11.590;2023-02-13T09:06:36;97426.06;;;-0.57;100.00
60433;BME280;46286;48.098;11.590;2023-02-13T09:09:03;97435.22;;;-0.44;100.00
60433;BME280;46286;48.098;11.590;2023-02-13T09:11:29;97440.78;;;-0.31;100.00
60433;BME280;46286;48.098;11.590;2023-02-13T09:13:54;97433.38;;;-0.26;100.00
60433;BME280;46286;48.098;11.590;2023-02-13T09:16:21;97439.34;;;-0.25;100.00
60433;BME280;46286;48.098;11.590;2023-02-13T09:18:47;97433.16;;;-0.32;100.00
60433;BME280;46286;48.098;11.590;2023-02-13T09:21:13;97436.22;;;-0.37;100.00
60433;BME280;46286;48.098;11.590;2023-02-13T09:23:39;97445.66;;;-0.28;100.00
60433;BME280;46286;48.098;11.590;2023-02-13T09:26:08;97442.41;;;-0.30;100.00
60433;BME280;46286;48.098;11.590;2023-02-13T09:28:35;97447.03;;;-0.07;100.00
60433;BME280;46286;48.098;11.590;2023-02-13T09:31:05;97440.97;;;0.02;100.00
60433;BME280;46286;48.098;11.590;2023-02-13T09:33:31;97439.28;;;-0.07;100.00
60433;BME280;46286;48.098;11.590;2023-02-13T09:35:56;97436.09;;;-0.01;100.00
60433;BME280;46286;48.098;11.590;2023-02-13T09:38:22;97435.69;;;-0.14;100.00
60433;BME280;46286;48.098;11.590;2023-02-13T09:40:51;97447.66;;;-0.13;100.00
60433;BME280;46286;48.098;11.590;2023-02-13T09:43:42;97440.25;;;-0.08;100.00
60433;BME280;46286;48.098;11.590;2023-02-13T09:46:19;97442.91;;;0.00;100.00
60433;BME280;46286;48.098;11.590;2023-02-13T09:48:49;97435.16;;;0.08;100.00
60433;BME280;46286;48.098;11.590;2023-02-13T09:51:17;97436.09;;;-0.01;100.00
60433;BME280;46286;48.098;11.590;2023-02-13T09:53:52;97435.13;;;0.00;100.00
60433;BME280;46286;48.098;11.590;2023-02-13T09:56:55;97442.00;;;0.26;100.00
60433;BME280;46286;48.098;11.590;2023-02-13T09:59:36;97440.72;;;0.22;100.00
60433;BME280;46286;48.098;11.590;2023-02-13T10:02:22;97436.84;;;0.26;100.00
60433;BME280;46286;48.098;11.590;2023-02-13T10:05:18;97442.00;;;0.17;100.00
60433;BME280;46286;48.098;11.590;2023-02-13T10:16:17;97452.00;;;0.55;100.00
60433;BME280;46286;48.098;11.590;2023-02-13T10:21:31;97444.75;;;0.75;100.00
60433;BME280;46286;48.098;11.590;2023-02-13T10:24:39;97446.63;;;0.48;100.00
60433;BME280;46286;48.098;11.590;2023-02-13T10:27:22;97446.53;;;0.75;100.00
60433;BME280;46286;48.098;11.590;2023-02-13T10:30:02;97437.34;;;1.05;100.00
60433;BME280;46286;48.098;11.590;2023-02-13T10:35:19;97434.38;;;0.67;100.00
60433;BME280;46286;48.098;11.590;2023-02-13T10:37:47;97428.88;;;0.70;100.00
60433;BME280;46286;48.098;11.590;2023-02-13T10:40:17;97430.19;;;0.74;100.00
60433;BME280;46286;48.098;11.590;2023-02-13T10:42:44;97430.41;;;0.38;100.00
60433;BME280;46286;48.098;11.590;2023-02-13T10:45:41;97432.13;;;0.72;100.00
60433;BME280;46286;48.098;11.590;2023-02-13T10:54:20;97426.94;;;0.80;100.00
60433;BME280;46286;48.098;11.590;2023-02-13T11:02:26;97419.78;;;0.58;100.00
60433;BME280;46286;48.098;11.590;2023-02-13T11:04:58;97422.28;;;0.33;100.00
60433;BME280;46286;48.098;11.590;2023-02-13T11:07:25;97419.47;;;0.77;100.00
60433;BME280;46286;48.098;11.590;2023-02-13T11:09:54;97411.41;;;0.89;100.00
60433;BME280;46286;48.098;11.590;2023-02-13T11:12:31;97414.66;;;0.99;100.00
60433;BME280;46286;48.098;11.590;2023-02-13T11:15:03;97408.72;;;0.47;100.00
60433;BME280;46286;48.098;11.590;2023-02-13T11:17:31;97411.06;;;0.92;100.00
60433;BME280;46286;48.098;11.590;2023-02-13T11:20:03;97403.63;;;0.97;100.00
60433;BME280;46286;48.098;11.590;2023-02-13T11:22:35;97400.22;;;0.88;100.00
60433;BME280;46286;48.098;11.590;2023-02-13T11:25:23;97405.25;;;1.14;100.00
60433;BME280;46286;48.098;11.590;2023-02-13T11:28:06;97406.53;;;1.02;100.00
60433;BME280;46286;48.098;11.590;2023-02-13T11:30:34;97405.59;;;1.11;100.00
60433;BME280;46286;48.098;11.590;2023-02-13T11:33:27;97402.50;;;1.16;100.00
60433;BME280;46286;48.098;11.590;2023-02-13T11:36:08;97410.59;;;1.21;100.00
60433;BME280;46286;48.098;11.590;2023-02-13T11:38:34;97395.53;;;1.08;100.00
60433;BME280;46286;48.098;11.590;2023-02-13T11:41:09;97404.94;;;1.17;100.00
60433;BME280;46286;48.098;11.590;2023-02-13T11:43:47;97399.59;;;1.11;100.00
60433;BME280;46286;48.098;11.590;2023-02-13T11:46:23;97401.53;;;1.09;100.00
60433;BME280;46286;48.098;11.590;2023-02-13T11:49:00;97406.88;;;1.24;100.00
60433;BME280;46286;48.098;11.590;2023-02-13T11:51:42;97408.50;;;1.00;100.00
60433;BME280;46286;48.098;11.590;2023-02-13T11:54:23;97409.78;;;0.88;100.00
60433;BME280;46286;48.098;11.590;2023-02-13T11:57:08;97405.75;;;1.18;100.00
60433;BME280;46286;48.098;11.590;2023-02-13T11:59:44;97406.22;;;1.21;100.00
60433;BME280;46286;48.098;11.590;2023-02-13T12:02:18;97405.25;;;1.31;100.00
60433;BME280;46286;48.098;11.590;2023-02-13T12:04:45;97393.91;;;1.24;100.00
60433;BME280;46286;48.098;11.590;2023-02-13T12:07:31;97395.50;;;1.41;100.00
60433;BME280;46286;48.098;11.590;2023-02-13T12:12:44;97399.03;;;1.56;100.00
60433;BME280;46286;48.098;11.590;2023-02-13T12:15:32;97395.81;;;1.54;100.00
60433;BME280;46286;48.098;11.590;2023-02-13T12:20:54;97397.13;;;1.09;100.00
60433;BME280;46286;48.098;11.590;2023-02-13T12:26:30;97381.97;;;1.70;100.00
60433;BME280;46286;48.098;11.590;2023-02-13T12:43:39;97362.94;;;1.86;100.00
60433;BME280;46286;48.098;11.590;2023-02-13T12:48:59;97349.25;;;2.01;100.00
60433;BME280;46286;48.098;11.590;2023-02-13T13:03:33;97345.28;;;2.21;100.00
60433;BME280;46286;48.098;11.590;2023-02-13T13:12:11;97352.22;;;1.89;100.00
60433;BME280;46286;48.098;11.590;2023-02-13T13:15:23;97347.91;;;1.73;100.00
60433;BME280;46286;48.098;11.590;2023-02-13T13:17:58;97355.38;;;2.08;100.00
60433;BME280;46286;48.098;11.590;2023-02-13T13:23:28;97345.94;;;2.15;100.00
60433;BME280;46286;48.098;11.590;2023-02-13T13:26:06;97351.03;;;2.08;100.00
60433;BME280;46286;48.098;11.590;2023-02-13T13:28:38;97351.47;;;2.12;100.00
60433;BME280;46286;48.098;11.590;2023-02-13T13:31:05;97354.63;;;2.31;100.00
60433;BME280;46286;48.098;11.590;2023-02-13T13:33:32;97352.56;;;2.49;100.00
60433;BME280;46286;48.098;11.590;2023-02-13T13:39:26;97349.78;;;2.28;100.00
60433;BME280;46286;48.098;11.590;2023-02-13T13:45:05;97348.31;;;2.56;100.00
60433;BME280;46286;48.098;11.590;2023-02-13T13:47:39;97354.03;;;2.52;100.00
60433;BME280;46286;48.098;11.590;2023-02-13T13:50:22;97355.34;;;2.71;100.00
60433;BME280;46286;48.098;11.590;2023-02-13T13:53:13;97357.06;;;2.55;100.00
60433;BME280;46286;48.098;11.590;2023-02-13T13:58:21;97351.06;;;2.78;100.00
60433;BME280;46286;48.098;11.590;2023-02-13T14:03:38;97347.50;;;2.56;100.00
60433;BME280;46286;48.098;11.590;2023-02-13T14:06:09;97343.91;;;2.57;100.00
60433;BME280;46286;48.098;11.590;2023-02-13T14:11:24;97351.47;;;2.12;100.00
60433;BME280;46286;48.098;11.590;2023-02-13T14:13:50;97351.47;;;2.12;100.00
60433;BME280;46286;48.098;11.590;2023-02-13T14:19:05;97344.34;;;2.14;100.00
60433;BME280;46286;48.098;11.590;2023-02-13T14:21:31;97342.13;;;2.03;100.00
60433;BME280;46286;48.098;11.590;2023-02-13T14:23:58;97339.72;;;2.24;100.00
60433;BME280;46286;48.098;11.590;2023-02-13T14:26:32;97342.50;;;2.23;100.00
60433;BME280;46286;48.098;11.590;2023-02-13T14:31:41;97342.59;;;2.30;100.00
60433;BME280;46286;48.098;11.590;2023-02-13T14:34:17;97341.38;;;1.86;100.00
60433;BME280;46286;48.098;11.590;2023-02-13T14:37:03;97336.13;;;2.25;100.00
60433;BME280;46286;48.098;11.590;2023-02-13T14:39:33;97338.44;;;2.20;100.00
60433;BME280;46286;48.098;11.590;2023-02-13T14:42:04;97334.19;;;2.28;100.00
60433;BME280;46286;48.098;11.590;2023-02-13T14:44:48;97336.47;;;2.22;100.00
60433;BME280;46286;48.098;11.590;2023-02-13T14:47:21;97337.66;;;2.20;100.00
60433;BME280;46286;48.098;11.590;2023-02-13T14:49:49;97333.94;;;2.14;100.00
60433;BME280;46286;48.098;11.590;2023-02-13T14:52:18;97339.38;;;1.96;100.00
60433;BME280;46286;48.098;11.590;2023-02-13T14:54:49;97334.97;;;1.97;100.00
60433;BME280;46286;48.098;11.590;2023-02-13T14:57:19;97344.94;;;1.85;100.00
60433;BME280;46286;48.098;11.590;2023-02-13T14:59:49;97331.03;;;2.09;100.00
60433;BME280;46286;48.098;11.590;2023-02-13T15:02:24;97336.38;;;1.76;100.00
60433;BME280;46286;48.098;11.590;2023-02-13T15:04:59;97336.97;;;1.86;100.00
60433;BME280;46286;48.098;11.590;2023-02-13T15:07:29;97327.88;;;1.90;100.00